Map

Track Data

SID SEASON NUMBER BASIN SUBBASIN NAME ISO_TIME NATURE LAT LON WMO_WIND WMO_PRES WMO_AGENCY TRACK_TYPE DIST2LAND LANDFALL IFLAG USA_AGENCY USA_ATCF_ID USA_LAT USA_LON USA_RECORD USA_STATUS USA_WIND USA_PRES USA_SSHS USA_R34_NE USA_R34_SE USA_R34_SW USA_R34_NW USA_R50_NE USA_R50_SE USA_R50_SW USA_R50_NW USA_R64_NE USA_R64_SE USA_R64_SW USA_R64_NW USA_POCI USA_ROCI USA_RMW USA_EYE TOKYO_LAT TOKYO_LON TOKYO_GRADE TOKYO_WIND TOKYO_PRES TOKYO_R50_DIR TOKYO_R50_LONG TOKYO_R50_SHORT TOKYO_R30_DIR TOKYO_R30_LONG TOKYO_R30_SHORT TOKYO_LAND CMA_LAT CMA_LON CMA_CAT CMA_WIND CMA_PRES HKO_LAT HKO_LON HKO_CAT HKO_WIND HKO_PRES NEWDELHI_LAT NEWDELHI_LON NEWDELHI_GRADE NEWDELHI_WIND NEWDELHI_PRES NEWDELHI_CI NEWDELHI_DP NEWDELHI_POCI REUNION_LAT REUNION_LON REUNION_TYPE REUNION_WIND REUNION_PRES REUNION_TNUM REUNION_CI REUNION_RMW REUNION_R34_NE REUNION_R34_SE REUNION_R34_SW REUNION_R34_NW REUNION_R50_NE REUNION_R50_SE REUNION_R50_SW REUNION_R50_NW REUNION_R64_NE REUNION_R64_SE REUNION_R64_SW REUNION_R64_NW BOM_LAT BOM_LON BOM_TYPE BOM_WIND BOM_PRES BOM_TNUM BOM_CI BOM_RMW BOM_R34_NE BOM_R34_SE BOM_R34_SW BOM_R34_NW BOM_R50_NE BOM_R50_SE BOM_R50_SW BOM_R50_NW BOM_R64_NE BOM_R64_SE BOM_R64_SW BOM_R64_NW BOM_ROCI BOM_POCI BOM_EYE BOM_POS_METHOD BOM_PRES_METHOD NADI_LAT NADI_LON NADI_CAT NADI_WIND NADI_PRES WELLINGTON_LAT WELLINGTON_LON WELLINGTON_WIND WELLINGTON_PRES DS824_LAT DS824_LON DS824_STAGE DS824_WIND DS824_PRES TD9636_LAT TD9636_LON TD9636_STAGE TD9636_WIND TD9636_PRES TD9635_LAT TD9635_LON TD9635_WIND TD9635_PRES TD9635_ROCI NEUMANN_LAT NEUMANN_LON NEUMANN_CLASS NEUMANN_WIND NEUMANN_PRES MLC_LAT MLC_LON MLC_CLASS MLC_WIND MLC_PRES USA_GUST BOM_GUST BOM_GUST_PER REUNION_GUST REUNION_GUST_PER USA_SEAHGT USA_SEARAD_NE USA_SEARAD_SE USA_SEARAD_SW USA_SEARAD_NW STORM_SPEED STORM_DIR
1867281N14301 1867 25 NA NA NOT_NAMED 1867-10-08 00:00:00 TS 14.1000 -59.0000 main 438 414 _____________O -1 14.1000 -59.0000 TS 50 23 283
1867281N14301 1867 25 NA CS NOT_NAMED 1867-10-08 03:00:00 TS 14.3553 -60.1573 main 423 416 _____________P -1 14.3553 -60.1573 TS 52 24 282
1867281N14301 1867 25 NA CS NOT_NAMED 1867-10-08 06:00:00 TS 14.6000 -61.4000 main 436 436 _____________O -1 14.6000 -61.4000 TS 55 25 281
1867281N14301 1867 25 NA CS NOT_NAMED 1867-10-08 09:00:00 TS 14.8359 -62.7273 main 459 388 _____________P -1 14.8359 -62.7273 TS 57 24 282
1867281N14301 1867 25 NA CS NOT_NAMED 1867-10-08 12:00:00 TS 15.1000 -63.8000 main 388 331 _____________O -1 15.1000 -63.8000 TS 60 16 292
1867281N14301 1867 25 NA CS NOT_NAMED 1867-10-08 15:00:00 TS 15.4413 -64.2854 main 331 282 _____________P -1 15.4413 -64.2854 TS 60 10 316
1867281N14301 1867 25 NA CS NOT_NAMED 1867-10-08 18:00:00 TS 15.8000 -64.5000 main 282 237 _____________O -1 15.8000 -64.5000 TS 60 8 323
1867281N14301 1867 25 NA CS NOT_NAMED 1867-10-08 21:00:00 TS 16.0999 -64.8002 main 237 193 _____________P -1 16.0999 -64.8002 TS 65 8 316
1867281N14301 1867 25 NA CS NOT_NAMED 1867-10-09 00:00:00 TS 16.4000 -65.1000 main 193 151 _____________O -1 16.4000 -65.1000 HU 70 9 316
1867281N14301 1867 25 NA CS NOT_NAMED 1867-10-09 03:00:00 TS 16.7500 -65.4500 main 140 99 _____________P -1 16.7500 -65.4500 HU 72 10 316
1867281N14301 1867 25 NA CS NOT_NAMED 1867-10-09 06:00:00 TS 17.1000 -65.8000 main 99 56 _____________O -1 17.1000 -65.8000 HU 75 9 318
1867281N14301 1867 25 NA CS NOT_NAMED 1867-10-09 09:00:00 TS 17.4298 -66.0851 main 56 24 _____________P -1 17.4298 -66.0851 HU 75 8 316
1867281N14301 1867 25 NA CS NOT_NAMED 1867-10-09 12:00:00 TS 17.7000 -66.4000 main 30 10 _____________O -1 17.7000 -66.4000 HU 75 8 302
1867281N14301 1867 25 NA CS NOT_NAMED 1867-10-09 15:00:00 TS 17.8725 -66.8202 main 10 0 _____________P -1 17.8725 -66.8202 HU 75 9 289
1867281N14301 1867 25 NA CS NOT_NAMED 1867-10-09 18:00:00 TS 18.0000 -67.3000 main 10 10 _____________O -1 18.0000 -67.3000 HU 75 10 287
1867281N14301 1867 25 NA CS NOT_NAMED 1867-10-09 21:00:00 TS 18.1500 -67.8000 main 62 21 _____________P -1 18.1500 -67.8000 HU 72 10 288
1867281N14301 1867 25 NA CS NOT_NAMED 1867-10-10 00:00:00 TS 18.3000 -68.3000 main 21 0 _____________O -1 18.3000 -68.3000 HU 70 10 289
1867281N14301 1867 25 NA NA NOT_NAMED 1867-10-10 03:00:00 TS 18.4573 -68.7501 main 0 0 _____________P -1 18.4573 -68.7501 HU 67 9 289
1867281N14301 1867 25 NA NA NOT_NAMED 1867-10-10 06:00:00 TS 18.6000 -69.2000 main 0 0 _____________O -1 18.6000 -69.2000 HU 65 9 285
1867281N14301 1867 25 NA NA NOT_NAMED 1867-10-10 09:00:00 TS 18.6847 -69.6629 main 0 0 _____________P -1 18.6847 -69.6629 HU 62 10 282
1867281N14301 1867 25 NA NA NOT_NAMED 1867-10-10 12:00:00 TS 18.8000 -70.2000 main 0 0 _____________O -1 18.8000 -70.2000 TS 60 12 287
1867281N14301 1867 25 NA NA NOT_NAMED 1867-10-10 15:00:00 TS 19.0350 -70.8698 main 0 0 _____________P -1 19.0350 -70.8698 TS 57 14 291
1867281N14301 1867 25 NA NA NOT_NAMED 1867-10-10 18:00:00 TS 19.3000 -71.6000 main 0 0 _____________O -1 19.3000 -71.6000 TS 55 14 289
1867281N14301 1867 25 NA NA NOT_NAMED 1867-10-10 21:00:00 TS 19.5072 -72.3003 main 0 0 _____________P -1 19.5072 -72.3003 TS 52 14 287
1867281N14301 1867 25 NA NA NOT_NAMED 1867-10-11 00:00:00 TS 19.7000 -73.0000 main 0 0 _____________O -1 19.7000 -73.0000 TS 50 14 287
1867281N14301 1867 25 NA NA NOT_NAMED 1867-10-11 03:00:00 TS 19.8998 -73.7076 main 30 0 _____________P -1 19.8998 -73.7076 TS 45 14 287
1867281N14301 1867 25 NA CS NOT_NAMED 1867-10-11 06:00:00 TS 20.1000 -74.4000 main 0 0 _____________O -1 20.1000 -74.4000 TS 40 14 287
1867281N14301 1867 25 NA NA NOT_NAMED 1867-10-11 09:00:00 TS 20.2850 -75.0877 main 0 0 _____________P -1 20.2850 -75.0877 TS 35 13 288
1867281N14301 1867 25 NA NA NOT_NAMED 1867-10-11 12:00:00 TS 20.5000 -75.7000 main 0 0 _____________O -1 20.5000 -75.7000 TD 30 11 297
1867281N14301 1867 25 NA NA NOT_NAMED 1867-10-11 15:00:00 TS 20.7921 -76.1726 main 0 0 _____________P -1 20.7921 -76.1726 TD 30 10 305
1867281N14301 1867 25 NA NA NOT_NAMED 1867-10-11 18:00:00 TS 21.1000 -76.6000 main 0 0 _____________O -1 21.1000 -76.6000 TD 30 10 303
1867281N14301 1867 25 NA NA NOT_NAMED 1867-10-11 21:00:00 TS 21.3575 -77.1002 main 0 0 _____________P -1 21.3575 -77.1002 TD 30 11 298
1867281N14301 1867 25 NA NA NOT_NAMED 1867-10-12 00:00:00 TS 21.6000 -77.6000 main 0 0 _____________O -1 21.6000 -77.6000 TD 30 10 299
1867281N14301 1867 25 NA NA NOT_NAMED 1867-10-12 03:00:00 TS 21.8423 -78.0503 main 0 0 _____________P -1 21.8423 -78.0503 TD 30 10 301
1867281N14301 1867 25 NA NA NOT_NAMED 1867-10-12 06:00:00 TS 22.1000 -78.5000 main 0 0 _____________O -1 22.1000 -78.5000 TD 30 10 302
1867281N14301 1867 25 NA NA NOT_NAMED 1867-10-12 09:00:00 TS 22.3904 -78.9869 main 11 10 _____________P -1 22.3904 -78.9869 TD 30 11 303
1867281N14301 1867 25 NA NA NOT_NAMED 1867-10-12 12:00:00 TS 22.7000 -79.5000 main 10 _____________O -1 22.7000 -79.5000 TD 30 11 303

About IBTrACS Database

This database is a web-friendly format of International Best Track Archive for Climate Stewardship (IBTrACS), a global best track data archive curated by NOAA dating back to 1842.

Updated: 2021-11-26